Blairsville, GA (30512)

11:26 PM EST on November 26, 2014 (GMT -0500)
Old England | Change Station
CLOSE
Current Station
Personal Weather Station
Location: Blairsville, GA
Elevation: 1883 ft
Nearby Weather Stations

Elev 1883 ft 34.90 °N, 84.03 °W | Updated 5 minutes ago

Overcast
Overcast
40.4 °F
Feels Like 40 °F
N
0.0
Wind Variable Wind from SSW
Gusts 0.0 mph

Today
High -- | Low -- °F
--% Chance of Precip.
Yesterday
High -- | Low -- °F
Precip. -- in
7:20 AM 5:25 PM
Waxing Crescent, 25% visible
Pressure 30.03 in
Visibility 10.0 miles
Clouds Scattered Clouds 1600 ft
Mostly Cloudy 2600 ft
Overcast 3900 ft
Windchill 40 °F
Dew Point 31 °F
Humidity 70%
Rainfall 0.00 in
Snow Depth Not available.
UV 0 out of 12
Pollen .10 out of 12
Air Quality Not available.
Flu Activity Not available.
METAR KRHP 270416Z AUTO 28006KT 10SM -RA SCT016 BKN026 OVC039 04/01 A3003 RMK AO2

More Conditions Fewer Conditions

Pressure 30.03 in
Visibility 10.0 miles
Clouds Scattered Clouds 1600 ft
Mostly Cloudy 2600 ft
Overcast 3900 ft
Windchill 40 °F
Dew Point 31 °F
Humidity 70%
Rainfall 0.00 in
Snow Depth Not available.
UV 0 out of 12
Pollen .10 out of 12
Air Quality Not available.
Flu Activity Not available.
METAR KRHP 270416Z AUTO 28006KT 10SM -RA SCT016 BKN026 OVC039 04/01 A3003 RMK AO2

More Conditions Fewer Conditions

10-Day Weather Forecast

Almanac

Astronomy

Nov. 26, 2014 Rise Set
Actual Time
Civil Twilight
Nautical Twilight
Astronomical Twilight
Moon
Length of Visible Light
Length of Day
Tomorrow will be .
, % of the Moon is Illuminated

Today's Extremes

State Highs State Lows

Community

WunderPhotos

Upload Photos

1,773,958 photos uploaded!

WunderBlogs® & News

Nearby

Air Quality

  Air Quality AQ Index Pollutant
Not available.

Snow Depth

Station Depth Elevation

Earthquake Activity

City Distance Mag. Time & Date
Minimum magnitude displayed is 2.5.

Coastal Water Temperatures

Place Temperature

Nearby Weather Stations